createdAt,value
2022-10-18T00:12:04.152Z,15.20
2022-10-18T00:18:31.724Z,15.50
2022-10-18T00:29:02.831Z,14.80
2022-10-18T00:34:15.968Z,14.90
2022-10-18T00:39:34.869Z,15.50
2022-10-18T00:47:12.030Z,15.40
2022-10-18T00:54:47.672Z,14.90
2022-10-18T01:06:07.793Z,14.50
2022-10-18T01:20:30.695Z,15.20
2022-10-18T01:27:15.177Z,15.60
2022-10-18T01:40:47.767Z,15.50
2022-10-18T01:44:16.670Z,15.40
2022-10-18T01:47:24.561Z,15.30
2022-10-18T01:50:08.646Z,15.30
2022-10-18T02:04:34.197Z,15.50
2022-10-18T02:21:09.230Z,15.80
2022-10-18T02:36:05.945Z,15.20
2022-10-18T02:53:29.818Z,15.20
2022-10-18T03:32:54.618Z,16.20
2022-10-18T03:35:57.764Z,16.00
2022-10-18T03:39:14.703Z,15.60
2022-10-18T04:00:29.569Z,16.30
2022-10-18T04:14:29.221Z,15.50
2022-10-18T04:16:57.319Z,15.20
2022-10-18T04:19:29.586Z,15.10
2022-10-18T04:21:57.788Z,15.00
2022-10-18T04:24:26.066Z,15.00
2022-10-18T04:26:56.551Z,15.10
2022-10-18T04:29:24.650Z,15.40
2022-10-18T04:31:54.070Z,15.70
2022-10-18T04:34:22.376Z,15.80
2022-10-18T04:36:50.414Z,16.00
2022-10-18T04:39:18.503Z,16.10
2022-10-18T04:41:46.584Z,16.20
2022-10-18T04:44:14.783Z,16.30
2022-10-18T04:46:45.898Z,16.50
2022-10-18T04:49:15.647Z,16.60
2022-10-18T04:51:43.797Z,16.80
2022-10-18T04:54:11.992Z,16.90
2022-10-18T04:56:40.005Z,17.20
2022-10-18T04:59:08.117Z,17.20
2022-10-18T05:01:36.285Z,17.20
2022-10-18T05:04:06.275Z,17.20
2022-10-18T05:06:35.618Z,17.20
2022-10-18T05:09:03.682Z,17.10
2022-10-18T05:11:31.704Z,17.00
2022-10-18T05:13:59.914Z,16.90
2022-10-18T05:16:32.384Z,16.70
2022-10-18T05:19:02.922Z,16.70
2022-10-18T05:21:30.970Z,16.60
2022-10-18T05:24:01.617Z,16.60
2022-10-18T05:27:16.608Z,16.40
2022-10-18T05:29:19.143Z,16.20
2022-10-18T05:31:49.070Z,16.20
2022-10-18T05:53:36.319Z,15.80
2022-10-18T06:13:15.436Z,16.30
2022-10-18T06:15:46.781Z,16.30
2022-10-18T06:18:27.829Z,15.70
2022-10-18T06:21:06.106Z,15.20
2022-10-18T06:23:47.198Z,14.80
2022-10-18T06:26:24.477Z,14.40
2022-10-18T06:28:57.351Z,14.30
2022-10-18T06:31:33.522Z,14.30
2022-10-18T08:26:23.301Z,19.50
2022-10-18T10:02:42.543Z,20.90
2022-10-18T10:45:37.614Z,20.70
2022-10-18T10:52:09.116Z,20.50
2022-10-18T10:54:55.755Z,20.40
2022-10-18T10:57:34.980Z,20.30
2022-10-18T11:00:10.250Z,20.20
2022-10-18T11:03:27.298Z,20.30
2022-10-18T11:05:53.360Z,20.20
2022-10-18T11:08:28.911Z,20.10
2022-10-18T11:11:08.493Z,20.10
2022-10-18T11:13:57.021Z,20.10
2022-10-18T11:16:50.343Z,20.10
2022-10-18T11:19:34.081Z,20.20
2022-10-18T11:22:08.163Z,20.20
2022-10-18T11:24:46.575Z,20.30
2022-10-18T11:30:53.538Z,20.60
2022-10-18T11:33:50.020Z,20.70
2022-10-18T11:38:58.816Z,20.80
2022-10-18T11:41:39.886Z,20.80
2022-10-18T11:44:19.514Z,20.90
2022-10-18T11:46:59.722Z,20.80
2022-10-18T11:50:03.709Z,20.80
2022-10-18T11:52:39.424Z,20.80
2022-10-18T11:55:31.998Z,20.70
2022-10-18T11:58:14.237Z,20.80
2022-10-18T12:00:50.264Z,21.00
2022-10-18T12:03:35.417Z,21.10
2022-10-18T12:06:07.316Z,21.00
2022-10-18T12:08:40.052Z,20.90
2022-10-18T12:11:15.823Z,21.00
2022-10-18T12:13:51.437Z,21.10
2022-10-18T12:16:44.570Z,21.20
2022-10-18T12:19:23.719Z,21.30
2022-10-18T12:21:57.705Z,21.50
2022-10-18T12:24:31.327Z,21.40
2022-10-18T12:53:29.100Z,21.00
2022-10-18T13:03:02.277Z,21.20
2022-10-18T13:08:42.292Z,21.40
2022-10-18T13:12:35.173Z,20.90
2022-10-18T13:19:00.656Z,20.70
2022-10-18T13:25:14.806Z,20.80
2022-10-18T13:27:51.071Z,20.80
2022-10-18T13:30:47.793Z,20.80
2022-10-18T13:33:38.873Z,20.80
2022-10-18T13:36:23.093Z,20.70
2022-10-18T13:39:03.317Z,20.70
2022-10-18T13:41:36.208Z,20.80
2022-10-18T13:45:33.997Z,20.80
2022-10-18T14:00:35.636Z,20.80
2022-10-18T14:04:02.269Z,20.80
2022-10-18T14:24:24.315Z,20.60
2022-10-18T14:27:24.579Z,20.50
2022-10-18T14:30:17.657Z,20.10
2022-10-18T14:36:42.648Z,19.80
2022-10-18T14:39:50.717Z,19.80
2022-10-18T14:46:18.325Z,19.90
2022-10-18T14:48:59.570Z,19.90
2022-10-18T14:51:33.733Z,19.80
2022-10-18T15:16:28.055Z,19.50
2022-10-18T15:31:36.806Z,19.10
2022-10-18T16:32:13.896Z,18.00
2022-10-18T16:34:41.958Z,17.80
2022-10-18T16:37:15.967Z,17.80
2022-10-18T16:39:43.997Z,17.80
2022-10-18T16:42:12.052Z,17.70
2022-10-18T16:44:40.160Z,17.70
2022-10-18T16:47:08.215Z,17.60
2022-10-18T16:49:37.696Z,17.60
2022-10-18T16:52:05.813Z,17.40
2022-10-18T16:55:55.144Z,17.40
2022-10-18T17:01:37.216Z,17.40
2022-10-18T17:04:50.968Z,17.40
2022-10-18T17:07:35.375Z,17.30
2022-10-18T17:10:04.191Z,17.20
2022-10-18T17:12:38.423Z,17.20
2022-10-18T17:15:10.677Z,17.10
2022-10-18T17:17:42.473Z,17.10
2022-10-18T17:20:34.727Z,17.10
2022-10-18T17:24:01.681Z,17.10
2022-10-18T17:26:31.775Z,17.10
2022-10-18T17:29:01.923Z,17.10
2022-10-18T17:31:31.704Z,17.10
2022-10-18T17:34:01.768Z,17.10
2022-10-18T17:36:31.786Z,17.00
2022-10-18T17:39:03.345Z,17.00
2022-10-18T17:41:32.094Z,16.90
2022-10-18T17:44:03.931Z,16.90
2022-10-18T17:46:34.017Z,16.90
2022-10-18T17:49:02.190Z,16.90
2022-10-18T17:51:30.655Z,16.90
2022-10-18T17:54:00.972Z,16.90
2022-10-18T17:56:37.932Z,16.90
2022-10-18T17:59:06.314Z,16.80
2022-10-18T18:01:37.103Z,16.80
2022-10-18T18:04:05.821Z,16.80
2022-10-18T18:06:39.364Z,16.80
2022-10-18T18:09:37.545Z,16.80
2022-10-18T18:12:09.119Z,16.70
2022-10-18T18:14:40.564Z,16.60
2022-10-18T18:17:09.041Z,16.50
2022-10-18T18:19:40.445Z,16.40
2022-10-18T18:22:08.574Z,16.20
2022-10-18T18:24:38.059Z,16.10
2022-10-18T18:27:06.180Z,16.00
2022-10-18T18:29:34.369Z,16.00
2022-10-18T18:32:03.579Z,15.90
2022-10-18T18:34:31.615Z,15.90
2022-10-18T18:36:59.773Z,15.80
2022-10-18T18:39:29.587Z,15.80
2022-10-18T18:41:59.067Z,15.80
2022-10-18T18:44:27.146Z,15.60
2022-10-18T18:46:55.536Z,15.40
2022-10-18T18:49:23.672Z,15.30
2022-10-18T18:51:51.757Z,15.20
2022-10-18T18:54:20.262Z,15.10
2022-10-18T18:56:48.349Z,15.10
2022-10-18T18:59:19.133Z,15.10
2022-10-18T19:01:47.555Z,15.10
2022-10-18T19:04:16.994Z,15.00
2022-10-18T19:06:46.725Z,14.90
2022-10-18T19:09:21.716Z,14.90
2022-10-18T19:11:50.728Z,14.80
2022-10-18T19:16:52.484Z,14.60
2022-10-18T19:19:22.841Z,14.50
2022-10-18T19:21:53.273Z,14.50
2022-10-18T19:24:26.620Z,14.40
2022-10-18T19:26:59.909Z,14.40
2022-10-18T19:29:34.296Z,14.30
2022-10-18T19:32:10.506Z,14.20
2022-10-18T19:34:42.318Z,14.20
2022-10-18T19:37:17.472Z,14.10
2022-10-18T19:39:48.904Z,14.10
2022-10-18T19:42:20.501Z,14.00
2022-10-18T19:44:58.591Z,14.00
2022-10-18T19:47:35.675Z,14.00
2022-10-18T19:50:06.910Z,14.00
2022-10-18T19:52:37.151Z,13.90
2022-10-18T19:55:07.804Z,13.80
2022-10-18T19:57:36.333Z,13.80
2022-10-18T20:00:11.336Z,13.80
2022-10-18T20:02:43.323Z,13.80
2022-10-18T20:05:15.170Z,13.80
2022-10-18T20:07:59.045Z,13.70
2022-10-18T20:10:27.724Z,13.70
2022-10-18T20:13:36.511Z,13.70
2022-10-18T20:16:42.796Z,13.70
2022-10-18T20:20:31.891Z,13.70
2022-10-18T20:24:05.575Z,13.60
2022-10-18T20:30:11.228Z,13.50
2022-10-18T20:32:55.936Z,13.50
2022-10-18T20:35:26.552Z,13.60
2022-10-18T20:38:17.776Z,13.60
2022-10-18T20:40:54.308Z,13.60
2022-10-18T20:43:29.886Z,13.70
2022-10-18T20:46:08.676Z,13.70
2022-10-18T20:48:39.014Z,13.70
2022-10-18T20:51:08.702Z,13.60
2022-10-18T20:53:37.534Z,13.60
2022-10-18T20:56:07.339Z,13.60
2022-10-18T20:58:36.271Z,13.50
2022-10-18T21:01:23.296Z,13.50
2022-10-18T21:03:58.413Z,13.40
2022-10-18T21:06:35.690Z,13.40
2022-10-18T21:09:06.591Z,13.30
2022-10-18T21:11:41.017Z,13.30
2022-10-18T21:14:17.593Z,13.30
2022-10-18T21:16:47.242Z,13.20
2022-10-18T21:19:18.235Z,13.20
2022-10-18T21:21:51.063Z,13.20
2022-10-18T21:24:20.862Z,13.20
2022-10-18T21:26:50.543Z,13.10
2022-10-18T21:29:22.318Z,13.10
2022-10-18T21:31:59.943Z,13.10
2022-10-18T21:34:34.190Z,13.10
2022-10-18T21:37:03.205Z,13.10
2022-10-18T21:39:34.677Z,13.10
2022-10-18T21:42:05.075Z,13.00
2022-10-18T21:44:39.403Z,13.00
2022-10-18T21:47:10.702Z,13.00
2022-10-18T21:49:51.141Z,12.90
2022-10-18T21:52:19.936Z,12.90
2022-10-18T21:54:51.288Z,12.80
2022-10-18T21:57:22.383Z,12.80
2022-10-18T21:59:56.283Z,12.80
2022-10-18T22:02:27.703Z,12.80
2022-10-18T22:05:07.039Z,12.80
2022-10-18T22:07:40.069Z,12.80
2022-10-18T22:10:11.901Z,12.80
2022-10-18T22:12:42.493Z,12.80
2022-10-18T22:15:14.494Z,12.80
2022-10-18T22:17:46.124Z,12.90
2022-10-18T22:20:20.364Z,12.90
2022-10-18T22:22:49.163Z,13.00
2022-10-18T22:25:18.273Z,13.20
2022-10-18T22:27:47.373Z,13.20
2022-10-18T22:30:19.259Z,13.30
2022-10-18T22:32:48.029Z,13.30
2022-10-18T22:35:18.382Z,13.30
2022-10-18T22:37:49.990Z,13.30
2022-10-18T22:40:18.832Z,13.20
2022-10-18T22:42:48.741Z,13.10
2022-10-18T22:45:34.495Z,13.10
2022-10-18T22:48:06.641Z,13.00
2022-10-18T22:50:39.532Z,12.90
2022-10-18T22:53:09.876Z,12.80
2022-10-18T22:55:41.642Z,12.80
2022-10-18T22:58:15.332Z,12.70
2022-10-18T23:00:48.215Z,12.70
2022-10-18T23:03:23.415Z,12.60
2022-10-18T23:05:56.728Z,12.60
2022-10-18T23:08:28.622Z,12.50
2022-10-18T23:10:59.248Z,12.50
2022-10-18T23:13:39.608Z,12.50
2022-10-18T23:16:09.220Z,12.40
2022-10-18T23:18:41.979Z,12.40
2022-10-18T23:21:15.540Z,12.30
2022-10-18T23:23:50.178Z,12.20
2022-10-18T23:26:28.451Z,12.20
2022-10-18T23:29:01.645Z,12.20
2022-10-18T23:31:37.701Z,12.00
2022-10-18T23:34:12.655Z,12.10
2022-10-18T23:36:48.693Z,12.00
2022-10-18T23:39:17.602Z,12.00
2022-10-18T23:41:51.965Z,12.10
2022-10-18T23:44:27.515Z,12.20
2022-10-18T23:47:06.228Z,12.20
2022-10-18T23:49:35.215Z,12.10
2022-10-18T23:52:09.782Z,12.10
2022-10-18T23:54:49.773Z,12.10
2022-10-18T23:57:34.437Z,12.00
